Aeroporto :
LOGIN :

Iscrizione | Disclaimer

   EN    FR    IT 

 










Sommario :    VFR   VFR Marginale   IFR   IFR Intensivo   IFR Molto Intensivo
Visibilità : 
Base nubi : 
>= 8 km
>= 3000ft
5 / 8 km
1000 / 3000 ft
1500m / 5 km
500 / 1000 ft
800 / 1500m
200 / 500 ft
< 800m
< 200 ft
Simboli :   Temporali  Nebbia  Neve Forte  Precipitazioni Forti  Vento > 20 kt
SIGMETs :   Varie  Temporali  Ghiacco  Turbolenza  Onda orograficha  Ceneri Vulcaniche






- Altitudine del aeroporto : 141 ft
- Codice IATA : TGD


LYPG - Podgorica - Montenegro

ULTIMO METAR :
  • 202030Z 15006KT CAVOK 29/19 Q1007 NOSIG

METARs OBSOLETI :
  • 202000Z 14004KT 110V170 CAVOK 29/18 Q1007 NOSIG
  • 201930Z 16006KT CAVOK 30/18 Q1007 NOSIG
  • 201900Z 17008KT CAVOK 30/18 Q1006 NOSIG
  • 201830Z 18008KT CAVOK 31/19 Q1006 NOSIG
  • 201800Z 16004KT 080V190 CAVOK 33/18 Q1006 NOSIG
  • 201730Z 18005KT CAVOK 33/19 Q1006 NOSIG
  • 201700Z 18005KT CAVOK 34/18 Q1006 NOSIG
  • 201630Z 20007KT 9999 FEW050 35/18 Q1005 NOSIG
  • 201600Z 20010KT 9999 FEW050 37/18 Q1005 NOSIG

TAF TAF LYPG
Valido dal 20 a 18 ore il 21 a 18 ore UTC


201700Z 2018/2118 36005KT CAVOK TX36/2114Z TN24/2103Z



MetMap, La meteo Aeronautica in un colpo d'occhio ! - Copyright ORBIFLY Dicembre 2007 - Disclaimer

ORBIFLY MET'MAP TEAM :

Programmazione e sviluppo : Alexandra Zaïnal
Concezione : Baudouin d'Aumeries
Supporto tecnico e logistico : Manuel Goepfert
Aiuto : Marc-Olivier Méhu
Aiuto per la traduzione : Arnaldo La Scala




FONTI E CREDITI :

   NOAA